Latest Weather Observations for Collie East

IDW60801

Issued at 8:05 am WST Saturday 2 August 2014 (issued every 30 minutes, with the page automatically refreshed every 10 minutes)

About weather observations | Map of weather stations | Latest weather observations for WA | Other Formats
Station Details ID: 009994 Name: COLLIE EAST Lat: -33.36 Lon: 116.17 Height: 200.0 m
Data from the previous 72 hours. | See also: Recent months at Collie East
Date/Time
WST
Temp
°C
App
Temp
°C
Dew
Point
Rel
Hum
%
Delta-T
°C
Wind Press
QNH
hPa
Press
MSL
hPa
Rain
since 9 am
mm
Dir
 
Spd
km/h
Gust
km/h
Spd
kts
Gust
kts
02/08:00am 7.0 6.1 6.1 94 0.4 CALM 0 0 0 0 - - 0.0
02/07:30am 5.9 4.8 4.9 93 0.4 CALM 0 0 0 0 - - 0.0
02/07:00am 5.5 3.5 4.5 93 0.4 SW 4 9 2 5 - - 0.0
02/06:30am 4.9 3.5 3.7 92 0.5 CALM 0 0 0 0 - - 0.0
02/06:00am 5.2 3.9 4.0 92 0.5 CALM 0 0 0 0 - - 0.0
02/05:30am 6.1 4.6 4.9 92 0.5 N 2 6 1 3 - - 0.0
02/05:00am 7.0 5.7 5.9 93 0.5 NE 2 9 1 5 - - 0.0
02/04:30am 6.8 5.4 5.7 93 0.5 NE 2 6 1 3 - - 0.0
02/04:00am 6.4 5.4 5.4 93 0.4 CALM 0 0 0 0 - - 0.0
02/03:30am 6.2 5.1 5.2 93 0.4 CALM 0 0 0 0 - - 0.0
02/03:00am 5.9 4.8 5.0 94 0.4 CALM 0 0 0 0 - - 0.0
02/02:30am 5.4 4.2 4.5 94 0.4 CALM 0 0 0 0 - - 0.0
02/02:00am 4.9 3.6 4.0 94 0.4 CALM 0 0 0 0 - - 0.0
02/01:30am 4.5 3.1 3.6 94 0.4 CALM 0 0 0 0 - - 0.0
02/01:00am 3.9 2.4 2.9 93 0.4 CALM 0 0 0 0 - - 0.0
02/12:30am 2.7 1.0 1.7 93 0.4 CALM 0 0 0 0 - - 0.0
02/12:00am 1.9 0.0 0.7 92 0.5 CALM 0 0 0 0 - - 0.0
 
Date/Time
WST
Temp
°C
App
Temp
°C
Dew
Point
Rel
Hum
%
Delta-T
°C
Wind Press
QNH
hPa
Press
MSL
hPa
Rain
since 9 am
mm
Dir
 
Spd
km/h
Gust
km/h
Spd
kts
Gust
kts
01/11:30pm 2.2 0.4 1.0 92 0.5 CALM 0 0 0 0 - - 0.0
01/11:00pm 2.4 0.6 1.2 92 0.5 CALM 0 0 0 0 - - 0.0
01/10:30pm 2.7 0.9 1.5 92 0.5 CALM 0 0 0 0 - - 0.0
01/10:00pm 2.8 1.0 1.5 91 0.5 CALM 0 0 0 0 - - 0.0
01/09:30pm 3.5 1.9 2.2 91 0.5 CALM 0 0 0 0 - - 0.0
01/09:00pm 3.7 2.1 2.2 90 0.6 CALM 0 0 0 0 - - 0.0
01/08:30pm 4.4 2.9 2.9 90 0.6 CALM 0 0 0 0 - - 0.0
01/08:00pm 5.1 3.7 3.4 89 0.7 CALM 0 0 0 0 - - 0.0
01/07:30pm 5.9 4.6 4.1 88 0.8 CALM 0 0 0 0 - - 0.0
01/07:00pm 6.8 5.5 4.3 84 1.1 CALM 0 0 0 0 - - 0.0
01/06:30pm 8.1 7.0 4.9 80 1.4 CALM 0 0 0 0 - - 0.0
01/06:00pm 9.7 7.4 4.7 71 2.3 NE 6 7 3 4 - - 0.0
01/05:30pm 12.3 10.0 5.0 61 3.4 NE 6 7 3 4 - - 0.0
01/05:00pm 13.8 11.3 4.9 55 4.2 N 7 11 4 6 - - 0.0
01/04:30pm 14.3 11.4 4.9 53 4.4 N 9 13 5 7 - - 0.0
01/04:00pm 14.3 11.3 4.3 51 4.7 NNE 9 17 5 9 - - 0.0
01/03:30pm 14.4 11.0 4.1 50 4.8 N 11 17 6 9 - - 0.0
01/03:00pm 14.6 11.7 4.9 52 4.6 NE 9 13 5 7 - - 0.0
01/02:30pm 13.8 10.4 3.9 51 4.6 N 11 17 6 9 - - 0.0
01/02:00pm 13.6 10.1 3.4 50 4.6 NNE 11 19 6 10 - - 0.0
01/01:30pm 13.5 9.8 4.4 54 4.2 N 13 22 7 12 - - 0.0
01/01:00pm 12.9 9.5 3.8 54 4.1 ENE 11 17 6 9 - - 0.0
01/12:30pm 12.4 8.5 3.4 54 4.0 NE 13 22 7 12 - - 0.0
01/12:00pm 11.7 7.8 3.2 56 3.8 ENE 13 19 7 10 - - 0.0
01/11:30am 11.6 7.8 3.9 59 3.5 ENE 13 24 7 13 - - 0.0
01/11:00am 10.4 6.1 3.0 60 3.2 NE 15 24 8 13 - - 0.0
01/10:30am 10.0 6.1 3.5 64 2.9 NE 13 20 7 11 - - 0.0
01/10:00am 8.7 4.8 3.3 69 2.3 NE 13 28 7 15 - - 0.0
01/09:30am 7.4 3.4 2.9 73 1.9 NE 13 20 7 11 - - 0.0
01/09:00am 5.1 3.0 4.1 93 0.4 NNE 4 15 2 8 - - 0.2
01/08:30am 2.2 0.4 1.3 94 0.3 CALM 0 0 0 0 - - 0.2
01/08:00am -0.3 -2.8 -1.3 93 0.3 NNE 2 7 1 4 - - 0.2
01/07:30am -1.6 -3.9 -2.6 93 0.3 CALM 0 0 0 0 - - 0.2
01/07:00am -1.6 -3.9 -2.6 93 0.3 CALM 0 0 0 0 - - 0.2
01/06:30am -1.5 -3.8 -2.5 93 0.3 CALM 0 0 0 0 - - 0.2
01/06:00am -1.5 -3.8 -2.5 93 0.3 CALM 0 0 0 0 - - 0.2
01/05:30am -1.5 -3.8 -2.5 93 0.3 CALM 0 0 0 0 - - 0.2
01/05:00am -1.4 -3.7 -2.4 93 0.3 CALM 0 0 0 0 - - 0.2
01/04:30am -0.9 -3.1 -1.9 93 0.3 CALM 0 0 0 0 - - 0.2
01/04:00am -0.8 -3.0 -1.8 93 0.3 CALM 0 0 0 0 - - 0.2
01/03:30am -0.6 -2.8 -1.6 93 0.3 CALM 0 0 0 0 - - 0.2
01/03:00am -0.1 -2.2 -1.1 93 0.4 CALM 0 0 0 0 - - 0.2
01/02:30am 0.0 -2.1 -1.0 93 0.4 CALM 0 0 0 0 - - 0.2
01/02:00am 0.5 -1.6 -0.5 93 0.4 CALM 0 0 0 0 - - 0.2
01/01:30am 0.6 -1.4 -0.4 93 0.4 CALM 0 0 0 0 - - 0.2
01/01:00am 0.6 -1.4 -0.4 93 0.4 CALM 0 0 0 0 - - 0.2
01/12:30am 1.3 -0.6 0.3 93 0.4 CALM 0 0 0 0 - - 0.2
01/12:00am 1.5 -0.4 0.3 92 0.4 CALM 0 0 0 0 - - 0.2
 
Date/Time
WST
Temp
°C
App
Temp
°C
Dew
Point
Rel
Hum
%
Delta-T
°C
Wind Press
QNH
hPa
Press
MSL
hPa
Rain
since 9 am
mm
Dir
 
Spd
km/h
Gust
km/h
Spd
kts
Gust
kts
31/11:30pm 1.7 -0.2 0.5 92 0.5 CALM 0 0 0 0 - - 0.2
31/11:00pm 1.9 0.0 0.7 92 0.5 CALM 0 0 0 0 - - 0.2
31/10:30pm 2.6 0.8 1.4 92 0.5 CALM 0 0 0 0 - - 0.2
31/10:00pm 2.9 1.2 1.7 92 0.5 CALM 0 0 0 0 - - 0.2
31/09:30pm 3.1 1.4 1.9 92 0.5 CALM 0 0 0 0 - - 0.2
31/09:00pm 3.7 2.1 2.4 91 0.5 CALM 0 0 0 0 - - 0.2
31/08:30pm 4.1 2.5 2.6 90 0.6 CALM 0 0 0 0 - - 0.2
31/08:00pm 4.6 3.1 3.1 90 0.6 CALM 0 0 0 0 - - 0.2
31/07:30pm 5.3 3.9 3.5 88 0.8 CALM 0 0 0 0 - - 0.2
31/07:00pm 6.2 4.9 4.0 86 0.9 CALM 0 0 0 0 - - 0.2
31/06:30pm 7.2 6.0 4.5 83 1.2 CALM 0 0 0 0 - - 0.2
31/06:00pm 8.3 5.9 4.3 76 1.8 ESE 6 9 3 5 - - 0.2
31/05:30pm 10.4 8.3 3.7 63 3.0 SE 4 7 2 4 - - 0.2
31/05:00pm 11.9 9.1 3.4 56 3.8 SE 7 15 4 8 - - 0.2
31/04:30pm 12.8 10.1 3.7 54 4.1 SE 7 11 4 6 - - 0.2
31/04:00pm 13.0 9.9 3.4 52 4.3 SE 9 19 5 10 - - 0.2
31/03:30pm 13.9 11.4 4.8 54 4.3 SSE 7 13 4 7 - - 0.2
31/03:00pm 13.7 10.7 4.3 53 4.4 SE 9 15 5 8 - - 0.2
31/02:30pm 13.4 10.8 4.0 53 4.3 ESE 7 15 4 8 - - 0.2
31/02:00pm 13.1 9.6 3.7 53 4.3 E 11 20 6 11 - - 0.2
31/01:30pm 13.6 10.9 3.9 52 4.5 SSW 7 11 4 6 - - 0.0
31/01:00pm 12.4 9.1 2.6 51 4.3 E 9 15 5 8 - - 0.0
31/12:30pm 13.2 10.0 5.1 58 3.8 E 11 22 6 12 - - 0.0
31/12:00pm 12.4 9.4 3.9 56 3.9 SSE 9 17 5 9 - - 0.0
31/11:30am 11.6 8.8 3.4 57 3.7 SSE 7 15 4 8 - - 0.0
31/11:00am 11.6 8.5 3.4 57 3.7 ESE 9 15 5 8 - - 0.0
31/10:30am 10.8 7.1 2.1 55 3.7 SE 11 19 6 10 - - 0.0
31/10:00am 10.6 7.0 3.2 60 3.3 SE 11 20 6 11 - - 0.0
31/09:30am 10.3 7.5 3.1 61 3.2 SSE 7 20 4 11 - - 0.0
31/09:00am 9.9 6.6 2.7 61 3.1 S 9 17 5 9 - - 0.2
31/08:30am 9.6 6.8 2.9 63 2.9 S 7 13 4 7 - - 0.2
31/08:00am 9.5 6.7 3.0 64 2.8 S 7 13 4 7 - - 0.2
31/07:30am 9.6 6.4 2.9 63 2.9 SSE 9 22 5 12 - - 0.2
31/07:00am 9.5 6.8 3.5 66 2.6 S 7 15 4 8 - - 0.2
31/06:30am 9.5 6.7 3.3 65 2.7 S 7 15 4 8 - - 0.2
31/06:00am 9.3 6.8 3.7 68 2.5 S 6 13 3 7 - - 0.2
31/05:30am 9.5 6.8 3.7 67 2.6 S 7 17 4 9 - - 0.2
31/05:00am 9.4 6.7 3.8 68 2.5 S 7 11 4 6 - - 0.2
31/04:30am 9.0 6.6 4.4 73 2.1 S 6 15 3 8 - - 0.2
31/04:00am 8.0 6.7 4.0 76 1.8 CALM 0 0 0 0 - - 0.2
31/03:30am 9.5 6.8 3.7 67 2.6 S 7 13 4 7 - - 0.2
31/03:00am 10.2 6.9 4.4 67 2.6 S 11 22 6 12 - - 0.2
31/02:30am 10.0 7.7 5.0 71 2.3 SW 6 9 3 5 - - 0.2
31/02:00am 10.0 7.6 5.2 72 2.2 SW 7 11 4 6 - - 0.2
31/01:30am 10.2 7.9 5.6 73 2.1 S 7 13 4 7 - - 0.2
31/01:00am 10.0 8.2 7.1 82 1.4 SW 6 9 3 5 - - 0.2
31/12:30am 9.9 8.5 7.2 83 1.3 SW 4 7 2 4 - - 0.2
31/12:00am 10.4 8.2 8.0 85 1.2 SW 9 17 5 9 - - 0.2
 
Date/Time
WST
Temp
°C
App
Temp
°C
Dew
Point
Rel
Hum
%
Delta-T
°C
Wind Press
QNH
hPa
Press
MSL
hPa
Rain
since 9 am
mm
Dir
 
Spd
km/h
Gust
km/h
Spd
kts
Gust
kts
30/11:30pm 10.9 8.9 8.5 85 1.2 SW 9 22 5 12 - - 0.2
30/11:00pm 11.3 9.2 9.6 89 0.9 SW 11 24 6 13 - - 0.2
30/10:30pm 11.2 9.1 9.6 90 0.8 SW 11 24 6 13 - - 0.2
30/10:00pm 10.5 9.5 8.9 90 0.8 W 4 11 2 6 - - 0.2
30/09:30pm 10.8 9.4 8.9 88 1.0 W 6 9 3 5 - - 0.2
30/09:00pm 10.6 9.2 9.0 90 0.8 WSW 6 9 3 5 - - 0.2
30/08:30pm 11.0 9.8 9.4 90 0.8 WSW 6 11 3 6 - - 0.2
30/08:00pm 11.4 10.2 9.7 89 0.9 SW 6 11 3 6 - - 0.2
30/07:30pm 11.9 10.6 10.0 88 1.0 WSW 7 11 4 6 - - 0.2
30/07:00pm 12.1 11.1 10.2 88 1.0 WSW 6 11 3 6 - - 0.2
30/06:30pm 12.9 11.4 10.4 85 1.3 SW 9 13 5 7 - - 0.2
30/06:00pm 13.4 11.2 10.8 84 1.4 WSW 13 20 7 11 - - 0.2
30/05:30pm 14.4 12.3 11.2 81 1.7 WSW 13 32 7 17 - - 0.2
30/05:00pm 15.1 12.9 10.9 76 2.3 W 13 22 7 12 - - 0.2
30/04:30pm 15.1 13.7 10.9 76 2.3 W 9 20 5 11 - - 0.2
30/04:00pm 15.8 14.1 12.4 80 1.9 W 13 24 7 13 - - 0.2
30/03:30pm 14.8 14.3 12.5 86 1.3 W 7 15 4 8 - - 0.0
30/03:00pm 14.6 11.8 11.2 80 1.8 W 17 28 9 15 - - 0.0
30/02:30pm 16.0 13.2 9.9 67 3.2 W 15 24 8 13 - - 0.0
30/02:00pm 16.9 14.2 10.3 65 3.5 WNW 15 26 8 14 - - 0.0
30/01:30pm 16.5 12.9 9.9 65 3.5 WNW 19 35 10 19 - - 0.0
30/01:00pm 16.4 13.2 8.6 60 4.0 W 15 30 8 16 - - 0.0
30/12:30pm 16.7 13.8 9.6 63 3.7 WNW 15 28 8 15 - - 0.0
30/12:00pm 15.6 12.6 9.1 65 3.4 W 15 32 8 17 - - 0.0
30/11:30am 15.5 13.4 9.6 68 3.1 WNW 11 24 6 13 - - 0.0
30/11:00am 15.9 12.9 9.3 65 3.4 W 15 32 8 17 - - 0.0
30/10:30am 15.8 13.3 9.7 67 3.2 W 13 20 7 11 - - 0.0
30/10:00am 15.7 12.9 10.0 69 3.0 WNW 15 24 8 13 - - 0.0
30/09:30am 14.9 13.1 10.7 76 2.2 NW 11 20 6 11 - - 0.0
30/09:00am 14.0 12.8 11.5 85 1.3 NW 9 15 5 8 - - 1.8
30/08:30am 13.4 12.5 11.5 88 1.0 WNW 7 13 4 7 - - 1.8

Other Formats:

Comma delimited format used in spreadsheet applications
http://www.bom.gov.au/fwo/IDW60801/IDW60801.95621.axf

JavaScript Object Notation format (JSON) in row-major order
http://www.bom.gov.au/fwo/IDW60801/IDW60801.95621.json